Time;durP1;ratioP1;P1;durP2;ratioP2;P2;SDS_P1;SDS_P2;PMS_P1;PMS_P2;Temp;Humidity;BMP_temperature;BMP_pressure;BME280_temperature;BME280_humidity;BME280_pressure;Samples;Min_cycle;Max_cycle;Signal;HPM_P1;HPM_P2
2023/07/13 00:01:49;;;;;;;6.90;2.05;;;18.20;94.80;;;;;;4980409;28;20058;-80
2023/07/13 00:04:17;;;;;;;8.00;2.33;;;18.20;94.70;;;;;;4970970;28;20027;-79
2023/07/13 00:06:44;;;;;;;6.53;1.90;;;18.20;94.60;;;;;;4978075;28;20572;-79
2023/07/13 00:09:13;;;;;;;8.13;1.92;;;18.20;94.70;;;;;;4963162;28;20038;-79
2023/07/13 00:11:40;;;;;;;4.28;1.85;;;18.20;94.70;;;;;;4980891;28;20267;-79
2023/07/13 00:14:07;;;;;;;3.70;1.80;;;18.10;94.70;;;;;;4962853;28;20030;-80
2023/07/13 00:16:35;;;;;;;12.45;2.05;;;18.00;94.90;;;;;;4980328;28;20715;-78
2023/07/13 00:19:00;;;;;;;8.65;1.95;;;18.00;94.90;;;;;;4980708;28;20105;-78
2023/07/13 00:21:29;;;;;;;3.97;1.80;;;18.00;94.70;;;;;;4981597;28;20454;-78
2023/07/13 00:23:57;;;;;;;9.45;2.10;;;17.90;94.70;;;;;;4963196;28;20587;-79
2023/07/13 00:26:22;;;;;;;5.85;1.65;;;17.90;94.70;;;;;;4970107;28;20487;-80
2023/07/13 00:28:48;;;;;;;4.47;1.70;;;17.70;94.80;;;;;;4978265;28;20314;-79
2023/07/13 00:31:14;;;;;;;8.05;2.40;;;17.80;95.00;;;;;;4981738;28;20046;-79
2023/07/13 00:33:43;;;;;;;8.30;1.80;;;17.70;95.00;;;;;;4963758;28;20026;-78
2023/07/13 00:36:11;;;;;;;9.82;2.20;;;17.70;95.20;;;;;;4969525;28;20374;-78
2023/07/13 00:38:37;;;;;;;8.30;2.05;;;17.50;95.40;;;;;;4980022;28;20042;-80
2023/07/13 00:41:06;;;;;;;10.65;2.03;;;17.50;95.60;;;;;;4980228;28;20022;-80
2023/07/13 00:43:31;;;;;;;7.20;1.80;;;17.50;95.60;;;;;;4978993;28;20034;-79
2023/07/13 00:46:24;;;;;;;6.25;2.30;;;17.40;95.60;;;;;;4979924;28;20037;-79
2023/07/13 00:48:51;;;;;;;18.70;1.95;;;17.40;95.50;;;;;;4962600;28;20089;-78
2023/07/13 00:51:27;;;;;;;5.95;2.10;;;17.30;95.40;;;;;;4980428;28;20019;-80
2023/07/13 00:53:56;;;;;;;8.77;1.80;;;17.30;95.40;;;;;;4977353;28;20058;-78
2023/07/13 00:56:22;;;;;;;7.55;1.95;;;17.20;95.20;;;;;;4984417;28;20082;-80
2023/07/13 00:58:48;;;;;;;8.45;1.95;;;17.30;95.20;;;;;;4978719;28;20085;-78
2023/07/13 01:01:16;;;;;;;4.65;1.70;;;17.30;95.30;;;;;;4978198;28;20411;-77
2023/07/13 01:03:41;;;;;;;4.30;1.88;;;17.20;95.30;;;;;;4962904;28;20106;-78
2023/07/13 01:06:08;;;;;;;12.50;2.38;;;17.20;95.30;;;;;;4980917;28;20838;-78
2023/07/13 01:08:36;;;;;;;4.75;1.70;;;17.10;95.40;;;;;;4976206;28;21024;-80
2023/07/13 01:11:01;;;;;;;11.27;1.73;;;17.10;95.60;;;;;;4979792;28;20496;-78
2023/07/13 01:13:27;;;;;;;4.97;1.80;;;17.10;95.40;;;;;;4980474;28;20109;-77
2023/07/13 01:15:56;;;;;;;6.90;1.63;;;17.00;95.50;;;;;;4978535;28;20098;-77
2023/07/13 01:18:25;;;;;;;7.88;1.85;;;17.00;95.70;;;;;;4980953;28;20045;-77
2023/07/13 01:21:02;;;;;;;13.32;1.80;;;17.00;95.60;;;;;;4980840;28;20975;-78
2023/07/13 01:23:31;;;;;;;3.95;1.50;;;16.90;95.50;;;;;;4982086;28;20088;-78
2023/07/13 01:26:01;;;;;;;5.35;1.30;;;16.90;95.70;;;;;;4984209;28;20027;-78
2023/07/13 01:28:27;;;;;;;6.15;1.70;;;16.90;95.80;;;;;;4970417;28;20037;-78
2023/07/13 01:30:55;;;;;;;8.30;2.72;;;16.80;95.70;;;;;;4978931;28;20486;-79
2023/07/13 01:33:24;;;;;;;8.27;1.73;;;16.90;95.70;;;;;;4978875;28;20027;-77
2023/07/13 01:35:50;;;;;;;7.03;1.65;;;16.90;95.80;;;;;;4977062;28;20027;-78
2023/07/13 01:38:18;;;;;;;5.65;1.50;;;16.80;95.80;;;;;;4979649;28;20368;-77
2023/07/13 01:40:44;;;;;;;11.15;1.60;;;16.80;95.90;;;;;;4978668;28;20475;-77
2023/07/13 01:43:10;;;;;;;8.77;1.60;;;16.80;96.00;;;;;;4960386;28;20029;-77
2023/07/13 01:45:38;;;;;;;4.68;1.75;;;16.80;96.00;;;;;;4977354;28;20106;-78
2023/07/13 01:48:06;;;;;;;4.78;1.48;;;16.80;96.10;;;;;;4978241;28;20501;-78
2023/07/13 01:50:33;;;;;;;4.68;1.48;;;16.80;96.10;;;;;;4954937;28;20597;-78
2023/07/13 01:52:59;;;;;;;6.18;1.55;;;16.80;96.20;;;;;;4978130;28;20019;-78
2023/07/13 01:55:24;;;;;;;8.60;1.50;;;16.80;96.20;;;;;;4970760;28;20335;-78
2023/07/13 01:57:50;;;;;;;5.45;1.40;;;16.70;96.30;;;;;;4976965;28;20113;-78
2023/07/13 02:00:16;;;;;;;10.10;1.27;;;16.70;96.20;;;;;;4976894;28;20034;-78
2023/07/13 02:02:42;;;;;;;9.50;1.63;;;16.70;96.30;;;;;;4970815;28;20026;-78
2023/07/13 02:05:10;;;;;;;2.92;1.23;;;16.60;96.60;;;;;;4974567;28;20023;-78
2023/07/13 02:07:36;;;;;;;8.70;1.67;;;16.60;96.60;;;;;;4972196;28;20057;-78
2023/07/13 02:10:04;;;;;;;6.72;1.73;;;16.60;96.60;;;;;;4977826;28;20036;-77
2023/07/13 02:12:30;;;;;;;6.60;1.40;;;16.50;96.70;;;;;;4978208;28;20030;-77
2023/07/13 02:14:58;;;;;;;6.00;1.65;;;16.50;96.90;;;;;;4979090;28;20349;-76
2023/07/13 02:17:24;;;;;;;4.65;1.30;;;16.40;97.10;;;;;;4977163;28;20014;-77
2023/07/13 02:19:49;;;;;;;8.43;1.58;;;16.50;97.10;;;;;;4962481;28;20053;-76
2023/07/13 02:22:16;;;;;;;4.72;1.30;;;16.40;97.10;;;;;;4975725;28;20181;-76
2023/07/13 02:24:41;;;;;;;5.97;1.55;;;16.40;97.30;;;;;;4977181;28;20296;-76
2023/07/13 02:27:09;;;;;;;6.70;1.60;;;16.40;97.60;;;;;;4977928;28;20518;-76
2023/07/13 02:29:35;;;;;;;3.53;1.42;;;16.40;97.40;;;;;;4976405;28;20026;-78
2023/07/13 02:32:01;;;;;;;8.02;1.33;;;16.30;97.50;;;;;;4978986;28;20383;-78
2023/07/13 02:34:26;;;;;;;8.88;2.20;;;16.40;97.50;;;;;;4979132;28;20033;-78
2023/07/13 02:36:52;;;;;;;6.25;1.45;;;16.40;97.50;;;;;;4979534;28;20026;-78
2023/07/13 02:39:17;;;;;;;9.23;1.67;;;16.40;97.50;;;;;;4976836;28;20479;-79
2023/07/13 02:41:43;;;;;;;4.57;1.40;;;16.30;97.50;;;;;;4960381;28;20018;-78
2023/07/13 02:44:09;;;;;;;10.07;1.88;;;16.30;97.70;;;;;;4977074;28;20023;-77
2023/07/13 02:46:37;;;;;;;17.10;1.70;;;16.40;97.70;;;;;;4960816;28;20098;-77
2023/07/13 02:49:03;;;;;;;3.75;1.60;;;16.30;97.70;;;;;;4960662;28;20019;-77
2023/07/13 02:51:29;;;;;;;6.53;1.55;;;16.40;97.80;;;;;;4977485;28;20462;-78
2023/07/13 02:53:55;;;;;;;8.32;1.60;;;16.30;97.90;;;;;;4964211;28;20046;-79
2023/07/13 02:56:29;;;;;;;9.38;1.55;;;16.30;98.00;;;;;;4977478;28;20029;-78
2023/07/13 02:58:57;;;;;;;10.38;2.10;;;16.20;98.10;;;;;;4966970;28;20114;-77
2023/07/13 03:01:23;;;;;;;5.10;1.42;;;16.20;98.10;;;;;;5102780;23;20050;-78
2023/07/13 03:03:50;;;;;;;5.80;1.33;;;16.30;98.60;;;;;;4942221;28;20258;-77
2023/07/13 03:06:19;;;;;;;5.05;1.65;;;16.30;98.30;;;;;;4959459;28;20044;-77
2023/07/13 03:08:48;;;;;;;8.85;1.52;;;16.20;98.40;;;;;;4959346;28;20039;-77
2023/07/13 03:11:18;;;;;;;5.93;1.90;;;16.10;98.50;;;;;;4961247;28;20030;-78
2023/07/13 03:13:44;;;;;;;6.47;1.65;;;16.10;98.60;;;;;;4961754;28;20033;-78
2023/07/13 03:16:11;;;;;;;10.10;1.70;;;16.10;98.70;;;;;;4958265;28;20023;-78
2023/07/13 03:18:37;;;;;;;7.35;1.50;;;16.10;98.80;;;;;;4961549;28;20042;-77
2023/07/13 03:21:04;;;;;;;12.80;2.05;;;16.10;98.80;;;;;;4955353;28;20029;-79
2023/07/13 03:23:30;;;;;;;6.75;1.60;;;16.10;98.80;;;;;;4960567;28;20460;-78
2023/07/13 03:26:10;;;;;;;6.57;1.65;;;16.00;98.90;;;;;;4963671;28;20110;-79
2023/07/13 03:28:36;;;;;;;8.20;1.83;;;16.10;99.00;;;;;;4943379;28;20035;-79
2023/07/13 03:31:05;;;;;;;11.45;1.80;;;16.00;99.00;;;;;;4961939;28;20457;-78
2023/07/13 03:33:31;;;;;;;7.25;1.40;;;16.10;99.00;;;;;;4959453;28;20010;-79
2023/07/13 03:35:57;;;;;;;6.65;1.73;;;16.00;99.10;;;;;;4945138;28;20103;-78
2023/07/13 03:38:23;;;;;;;9.02;1.70;;;16.00;99.10;;;;;;4961078;28;20221;-79
2023/07/13 03:40:51;;;;;;;9.18;2.20;;;16.00;99.20;;;;;;4961914;28;20033;-78
2023/07/13 03:43:17;;;;;;;8.48;1.92;;;16.10;99.30;;;;;;4945470;28;20042;-78
2023/07/13 03:45:45;;;;;;;3.92;1.42;;;16.10;99.20;;;;;;4962895;28;20022;-78
2023/07/13 03:48:10;;;;;;;7.63;1.75;;;16.10;99.40;;;;;;4963459;28;20023;-78
2023/07/13 03:50:38;;;;;;;6.53;1.90;;;16.20;99.30;;;;;;4970965;28;20049;-78
2023/07/13 03:53:04;;;;;;;9.68;1.65;;;16.20;99.30;;;;;;4962367;28;20030;-78
2023/07/13 03:55:30;;;;;;;10.88;1.80;;;16.10;99.30;;;;;;4962022;28;20022;-78
2023/07/13 03:58:21;;;;;;;9.25;1.95;;;16.10;99.50;;;;;;4941999;28;20030;-80
2023/07/13 04:00:47;;;;;;;9.75;1.85;;;16.10;99.50;;;;;;4960623;28;20133;-78
2023/07/13 04:03:12;;;;;;;6.90;1.85;;;16.10;99.50;;;;;;4943489;28;20071;-78
2023/07/13 04:05:40;;;;;;;13.13;2.10;;;16.20;99.60;;;;;;4961549;28;20580;-79
2023/07/13 04:08:06;;;;;;;7.22;1.52;;;16.20;99.40;;;;;;4950840;28;20219;-76
2023/07/13 04:10:31;;;;;;;3.47;1.65;;;16.10;99.50;;;;;;4943246;28;20124;-78
2023/07/13 04:12:57;;;;;;;18.48;2.15;;;16.20;99.60;;;;;;4960285;28;20034;-79
2023/07/13 04:15:24;;;;;;;9.05;2.22;;;16.20;99.60;;;;;;4942751;28;20125;-79
2023/07/13 04:17:53;;;;;;;6.53;1.98;;;16.20;99.60;;;;;;4956278;28;20698;-77
2023/07/13 04:20:20;;;;;;;7.93;1.90;;;16.20;99.80;;;;;;4944750;28;20739;-77
2023/07/13 04:22:46;;;;;;;7.43;1.67;;;16.30;99.70;;;;;;4964235;28;20019;-78
2023/07/13 04:25:13;;;;;;;6.57;1.98;;;16.30;99.90;;;;;;4962342;28;20022;-76
2023/07/13 04:27:39;;;;;;;6.88;1.83;;;16.30;99.70;;;;;;4959575;28;20208;-77
2023/07/13 04:30:06;;;;;;;4.05;1.77;;;16.30;99.70;;;;;;4960327;28;20340;-79
2023/07/13 04:35:15;;;;;;;7.10;2.45;;;16.40;99.60;;;;;;5040841;23;20042;-76
2023/07/13 04:37:43;;;;;;;9.60;1.95;;;16.40;99.60;;;;;;4981491;28;20585;-76
2023/07/13 04:40:12;;;;;;;7.20;2.45;;;16.50;99.50;;;;;;4979782;28;20042;-76
2023/07/13 04:42:38;;;;;;;5.18;1.88;;;16.40;99.70;;;;;;4962390;28;20533;-78
2023/07/13 04:45:06;;;;;;;6.40;1.95;;;16.50;99.70;;;;;;4976456;28;20489;-76
2023/07/13 04:47:34;;;;;;;8.13;1.60;;;16.50;99.70;;;;;;4980240;28;21204;-75
2023/07/13 04:49:59;;;;;;;6.93;2.10;;;16.50;99.70;;;;;;4968308;28;20039;-77
2023/07/13 04:52:25;;;;;;;14.07;2.72;;;16.60;99.60;;;;;;4978031;28;20226;-78
2023/07/13 04:54:51;;;;;;;6.50;1.92;;;16.60;99.70;;;;;;4979185;28;20034;-77
2023/07/13 04:57:16;;;;;;;9.48;2.15;;;16.60;99.70;;;;;;4980137;28;20260;-78
2023/07/13 04:59:42;;;;;;;9.52;1.85;;;16.60;99.70;;;;;;4961590;28;20095;-78
2023/07/13 05:02:08;;;;;;;6.65;2.58;;;16.70;99.70;;;;;;4961173;28;20431;-78
2023/07/13 05:04:33;;;;;;;10.02;2.20;;;16.70;99.70;;;;;;4962786;28;20015;-77
2023/07/13 05:06:59;;;;;;;5.20;2.10;;;16.60;99.60;;;;;;4975971;28;20084;-77
2023/07/13 05:09:25;;;;;;;6.13;2.00;;;16.70;99.60;;;;;;4979891;28;20034;-78
2023/07/13 05:11:51;;;;;;;4.50;1.60;;;16.70;99.50;;;;;;4958204;28;20146;-77
2023/07/13 05:14:16;;;;;;;4.97;2.03;;;16.80;99.50;;;;;;4981033;28;20536;-78
2023/07/13 05:16:42;;;;;;;12.43;1.90;;;16.80;99.50;;;;;;4982082;28;20676;-77
2023/07/13 05:19:09;;;;;;;12.13;2.22;;;17.00;99.40;;;;;;4989250;28;20037;-78
2023/07/13 05:21:34;;;;;;;7.78;2.15;;;17.00;99.40;;;;;;4980910;28;20073;-77
2023/07/13 05:24:00;;;;;;;8.52;2.65;;;17.10;99.30;;;;;;4968339;28;20026;-78
2023/07/13 05:26:28;;;;;;;12.63;3.42;;;17.20;99.30;;;;;;4981261;28;20026;-77
2023/07/13 05:28:53;;;;;;;11.60;2.80;;;17.20;99.10;;;;;;4977141;28;20027;-78
2023/07/13 05:31:19;;;;;;;7.15;2.20;;;17.30;99.10;;;;;;4980186;28;20053;-78
2023/07/13 05:33:45;;;;;;;10.27;2.78;;;17.10;99.40;;;;;;4961469;28;20070;-78
2023/07/13 05:36:13;;;;;;;7.45;2.65;;;17.20;99.40;;;;;;4979058;28;20027;-78
2023/07/13 05:38:39;;;;;;;8.43;2.60;;;17.20;99.60;;;;;;4981282;28;20104;-77
2023/07/13 05:41:06;;;;;;;15.35;3.17;;;17.40;99.50;;;;;;4982329;28;20093;-77
2023/07/13 05:43:31;;;;;;;18.10;3.58;;;17.50;99.40;;;;;;4979889;28;20030;-77
2023/07/13 05:45:57;;;;;;;16.23;2.95;;;17.50;99.30;;;;;;4967139;28;20022;-77
2023/07/13 05:48:23;;;;;;;10.90;2.60;;;17.60;99.40;;;;;;4961840;28;20030;-78
2023/07/13 05:50:49;;;;;;;13.95;3.42;;;17.50;99.40;;;;;;4976857;28;20026;-77
2023/07/13 05:53:15;;;;;;;12.57;3.42;;;17.60;99.40;;;;;;4977373;28;20050;-77
2023/07/13 05:55:42;;;;;;;17.73;4.55;;;17.70;99.50;;;;;;4979478;28;20384;-77
2023/07/13 05:58:08;;;;;;;15.82;4.82;;;17.60;99.60;;;;;;4977804;28;20030;-77
2023/07/13 06:00:34;;;;;;;18.05;4.82;;;17.80;99.70;;;;;;4976867;28;20027;-78
2023/07/13 06:02:59;;;;;;;14.30;4.20;;;17.80;99.50;;;;;;4978808;28;20042;-77
2023/07/13 06:05:25;;;;;;;21.23;5.15;;;17.90;99.50;;;;;;4969813;28;20030;-78
2023/07/13 06:07:50;;;;;;;17.42;4.80;;;18.00;99.60;;;;;;4978182;28;20150;-77
2023/07/13 06:10:16;;;;;;;15.90;4.97;;;18.00;99.80;;;;;;4976686;28;20037;-76
2023/07/13 06:12:42;;;;;;;17.02;5.15;;;17.90;99.70;;;;;;4978890;28;20048;-76
2023/07/13 06:15:08;;;;;;;16.75;5.18;;;17.80;99.80;;;;;;4979829;28;20062;-78
2023/07/13 06:17:36;;;;;;;19.42;5.28;;;17.90;99.90;;;;;;4969485;28;20371;-77
2023/07/13 06:20:01;;;;;;;17.30;6.30;;;18.00;99.90;;;;;;4979647;28;20044;-76
2023/07/13 06:22:27;;;;;;;26.80;6.03;;;18.00;99.90;;;;;;4961568;28;20098;-77
2023/07/13 06:24:52;;;;;;;19.85;6.72;;;18.10;99.90;;;;;;4962809;28;20045;-78
2023/07/13 06:27:18;;;;;;;20.15;6.10;;;18.20;99.90;;;;;;4979768;28;20643;-77
2023/07/13 06:29:46;;;;;;;21.60;6.15;;;18.10;99.80;;;;;;4964156;28;20026;-78
2023/07/13 06:32:14;;;;;;;21.58;7.53;;;18.10;99.80;;;;;;4980211;28;20030;-78
2023/07/13 06:34:39;;;;;;;22.20;6.95;;;18.10;99.90;;;;;;4979954;28;20038;-78
2023/07/13 06:37:05;;;;;;;16.13;7.43;;;18.20;99.90;;;;;;4979730;28;20033;-78
2023/07/13 06:39:34;;;;;;;15.35;6.30;;;18.30;99.90;;;;;;4964555;28;20054;-77
2023/07/13 06:42:02;;;;;;;24.48;8.02;;;18.20;99.90;;;;;;4961297;28;20367;-78
2023/07/13 06:44:28;;;;;;;14.93;6.65;;;18.30;99.80;;;;;;4979210;28;20097;-77
2023/07/13 06:46:53;;;;;;;21.92;7.57;;;18.20;99.80;;;;;;4972210;28;20447;-78
2023/07/13 06:49:20;;;;;;;15.90;8.48;;;18.20;99.90;;;;;;4969665;28;20027;-77
2023/07/13 06:51:45;;;;;;;18.25;6.93;;;18.30;99.90;;;;;;4988547;28;20022;-77
2023/07/13 06:54:11;;;;;;;12.98;6.93;;;18.30;99.90;;;;;;4983435;28;20049;-78
2023/07/13 06:56:36;;;;;;;16.67;6.88;;;18.20;99.90;;;;;;4982748;28;20027;-78
2023/07/13 06:59:02;;;;;;;27.75;7.25;;;18.20;99.90;;;;;;4981892;28;20049;-78
2023/07/13 07:01:28;;;;;;;19.55;6.28;;;18.20;99.90;;;;;;4982236;28;20030;-78
2023/07/13 07:03:56;;;;;;;16.73;6.30;;;18.20;99.90;;;;;;4980253;28;20022;-78
2023/07/13 07:06:24;;;;;;;19.15;6.07;;;18.20;99.90;;;;;;4982963;28;20163;-78
2023/07/13 07:08:51;;;;;;;16.77;5.88;;;18.20;99.90;;;;;;4981328;28;20101;-78
2023/07/13 07:11:22;;;;;;;21.10;6.43;;;18.30;99.90;;;;;;4981639;28;20074;-78
2023/07/13 07:13:50;;;;;;;13.63;6.45;;;18.50;99.80;;;;;;4977635;28;20041;-78
2023/07/13 07:16:16;;;;;;;15.90;6.82;;;18.60;99.80;;;;;;4965682;28;20359;-77
2023/07/13 07:18:41;;;;;;;18.02;6.82;;;18.50;99.70;;;;;;4981172;28;20038;-79
2023/07/13 07:21:07;;;;;;;18.15;6.70;;;18.50;99.70;;;;;;4981960;28;20022;-78
2023/07/13 07:23:33;;;;;;;21.75;7.13;;;18.50;99.60;;;;;;4983458;28;20037;-79
2023/07/13 07:25:59;;;;;;;14.25;6.20;;;18.60;99.60;;;;;;4979720;28;20030;-82
2023/07/13 07:28:25;;;;;;;18.77;7.18;;;18.80;99.30;;;;;;4981759;28;20066;-79
2023/07/13 07:30:53;;;;;;;17.40;6.70;;;18.80;99.10;;;;;;4980778;28;20026;-80
2023/07/13 07:33:19;;;;;;;18.95;6.05;;;18.90;99.20;;;;;;4979295;28;20022;-80
2023/07/13 07:35:44;;;;;;;17.73;6.68;;;18.90;99.20;;;;;;4981105;28;20585;-79
2023/07/13 07:38:10;;;;;;;20.73;6.75;;;18.90;99.20;;;;;;4981339;28;20656;-80
2023/07/13 07:40:40;;;;;;;22.27;6.68;;;19.00;98.80;;;;;;4983264;28;20084;-80
2023/07/13 07:43:07;;;;;;;16.60;6.60;;;19.10;98.70;;;;;;4982887;28;20025;-78
2023/07/13 07:45:34;;;;;;;17.98;6.75;;;19.20;98.80;;;;;;4980358;28;20497;-79
2023/07/13 07:47:59;;;;;;;19.65;6.88;;;19.30;98.70;;;;;;4978101;28;20022;-80
2023/07/13 07:50:28;;;;;;;20.95;7.72;;;19.40;98.30;;;;;;4963372;28;20537;-79
2023/07/13 07:52:55;;;;;;;19.80;7.00;;;19.40;98.10;;;;;;4980829;28;20022;-80
2023/07/13 07:55:25;;;;;;;14.60;6.05;;;19.30;98.40;;;;;;4981852;28;20030;-80
2023/07/13 07:57:50;;;;;;;18.02;6.07;;;19.30;98.50;;;;;;4962848;28;20227;-79
2023/07/13 08:00:16;;;;;;;14.75;5.28;;;19.30;98.40;;;;;;4964010;28;20038;-79
2023/07/13 08:02:43;;;;;;;13.38;6.30;;;19.40;98.40;;;;;;4969895;28;20037;-81
2023/07/13 08:05:13;;;;;;;21.73;6.07;;;19.40;98.50;;;;;;4977618;28;20065;-81
2023/07/13 08:07:39;;;;;;;14.18;5.80;;;19.30;98.20;;;;;;4976849;28;20022;-79
2023/07/13 08:10:06;;;;;;;19.08;6.57;;;19.20;98.40;;;;;;4981315;28;20649;-79
2023/07/13 08:12:41;;;;;;;19.55;6.90;;;19.30;98.60;;;;;;4981381;28;20430;-79
2023/07/13 08:15:11;;;;;;;16.95;6.18;;;19.40;98.50;;;;;;4986513;28;20023;-80
2023/07/13 08:17:37;;;;;;;15.18;5.88;;;19.50;98.50;;;;;;4972763;28;20134;-79
2023/07/13 08:20:04;;;;;;;16.20;6.30;;;19.80;98.00;;;;;;4979563;28;20118;-76
2023/07/13 08:22:29;;;;;;;15.15;5.95;;;19.70;98.00;;;;;;4981554;28;20693;-78
2023/07/13 08:24:55;;;;;;;13.82;6.03;;;20.00;97.40;;;;;;4981062;28;20085;-77
2023/07/13 08:27:22;;;;;;;13.77;6.03;;;20.00;97.00;;;;;;4963309;28;20026;-78
2023/07/13 08:29:49;;;;;;;15.13;6.45;;;19.90;97.20;;;;;;4969731;28;20023;-78
2023/07/13 08:32:15;;;;;;;14.50;5.60;;;19.90;97.10;;;;;;4979631;28;20026;-80
2023/07/13 08:34:40;;;;;;;13.13;5.80;;;19.70;97.50;;;;;;4979253;28;20023;-80
2023/07/13 08:37:07;;;;;;;13.68;5.53;;;19.80;97.80;;;;;;4965961;28;20403;-80
2023/07/13 08:39:33;;;;;;;19.13;5.15;;;19.80;97.60;;;;;;4982685;28;20479;-80
2023/07/13 08:42:07;;;;;;;17.92;5.60;;;19.80;97.60;;;;;;4979857;28;20101;-80
2023/07/13 08:45:08;;;;;;;20.15;5.40;;;20.00;97.30;;;;;;4977423;28;20026;-80
2023/07/13 08:47:36;;;;;;;12.45;4.07;;;20.00;97.00;;;;;;4982422;28;20026;-79
2023/07/13 08:50:04;;;;;;;10.23;5.00;;;19.80;97.40;;;;;;4984204;28;20057;-79
2023/07/13 08:52:36;;;;;;;16.27;5.35;;;19.80;97.30;;;;;;4982252;28;20030;-80
2023/07/13 08:55:05;;;;;;;;;;;19.80;97.40;;;;;;4981304;28;20058;-80
2023/07/13 08:57:36;;;;;;;15.27;4.55;;;19.70;97.60;;;;;;4972540;28;19952;-79
2023/07/13 09:00:04;;;;;;;11.48;4.45;;;19.80;97.40;;;;;;4980335;28;20368;-79
2023/07/13 09:02:54;;;;;;;11.00;4.85;;;20.00;97.60;;;;;;4983634;28;20078;-77
2023/07/13 09:05:34;;;;;;;11.40;4.70;;;20.20;97.10;;;;;;4982656;28;20109;-77
2023/07/13 09:08:21;;;;;;;15.02;4.85;;;20.40;96.80;;;;;;4984933;28;20182;-80
2023/07/13 09:10:59;;;;;;;11.10;4.47;;;20.60;96.40;;;;;;4962447;28;20902;-79
2023/07/13 09:13:51;;;;;;;18.63;5.40;;;20.80;96.10;;;;;;4983016;28;20401;-77
2023/07/13 09:16:20;;;;;;;15.18;5.40;;;20.70;95.80;;;;;;4983291;28;20023;-78
2023/07/13 09:18:53;;;;;;;14.13;5.13;;;20.90;95.80;;;;;;4982951;28;20121;-76
2023/07/13 09:21:33;;;;;;;16.92;5.22;;;20.80;95.60;;;;;;4980580;28;20557;-78
2023/07/13 09:24:21;;;;;;;16.33;5.07;;;20.90;95.80;;;;;;4980360;28;20040;-77
2023/07/13 09:26:47;;;;;;;10.68;5.40;;;20.80;95.80;;;;;;4965476;28;20104;-80
2023/07/13 09:29:28;;;;;;;13.30;5.15;;;21.00;95.70;;;;;;4982804;28;20045;-80
2023/07/13 09:32:00;;;;;;;11.63;4.60;;;21.30;95.20;;;;;;4979473;28;20112;-79
2023/07/13 09:34:26;;;;;;;14.68;4.57;;;21.50;94.90;;;;;;4982586;28;20105;-77
2023/07/13 09:36:51;;;;;;;20.70;4.93;;;21.60;94.70;;;;;;4981611;28;20034;-78
2023/07/13 09:39:32;;;;;;;18.42;5.07;;;21.90;94.80;;;;;;4982840;28;20049;-79
2023/07/13 09:42:07;;;;;;;18.40;5.43;;;22.20;94.00;;;;;;4981691;28;20140;-80
2023/07/13 09:44:53;;;;;;;11.55;4.80;;;22.20;93.60;;;;;;4958673;28;20435;-79
2023/07/13 09:47:24;;;;;;;15.05;5.03;;;22.40;93.50;;;;;;4980835;28;20399;-80
2023/07/13 09:50:04;;;;;;;13.30;4.90;;;22.30;93.10;;;;;;4979649;28;20061;-77
2023/07/13 09:53:00;;;;;;;19.65;5.03;;;22.30;93.30;;;;;;4963410;28;20305;-80
2023/07/13 09:55:37;;;;;;;11.65;4.82;;;22.90;92.40;;;;;;4941783;28;20030;-79
2023/07/13 09:58:24;;;;;;;15.23;4.47;;;23.30;91.20;;;;;;4975931;28;20073;-81
2023/07/13 10:01:00;;;;;;;14.95;4.90;;;23.50;91.00;;;;;;4963453;28;20038;-79
2023/07/13 10:03:39;;;;;;;15.82;4.43;;;23.70;90.60;;;;;;4979901;28;20390;-81
2023/07/13 10:06:15;;;;;;;15.30;4.85;;;23.90;90.30;;;;;;4981447;28;20042;-77
2023/07/13 10:08:41;;;;;;;14.75;4.93;;;23.90;87.60;;;;;;4979786;28;20120;-77
2023/07/13 10:11:29;;;;;;;10.23;4.38;;;23.90;88.10;;;;;;4964112;28;20069;-80
2023/07/13 10:14:00;;;;;;;16.92;4.28;;;24.50;87.80;;;;;;4981408;28;20037;-76
2023/07/13 10:16:32;;;;;;;16.77;5.38;;;24.50;86.10;;;;;;4980341;28;20022;-80
2023/07/13 10:19:01;;;;;;;11.50;4.37;;;24.60;84.90;;;;;;4983533;28;20045;-79
2023/07/13 10:21:33;;;;;;;13.68;4.68;;;24.10;84.90;;;;;;4979279;28;20254;-77
2023/07/13 10:24:22;;;;;;;8.77;3.30;;;24.20;84.70;;;;;;4982839;28;20113;-80
2023/07/13 10:26:58;;;;;;;13.00;3.45;;;24.60;82.00;;;;;;4978960;28;20045;-78
2023/07/13 10:29:27;;;;;;;12.38;5.10;;;24.50;82.80;;;;;;4982200;28;20018;-80
2023/07/13 10:31:53;;;;;;;16.27;4.22;;;24.60;83.20;;;;;;4964786;28;20825;-81
2023/07/13 10:34:19;;;;;;;16.88;4.32;;;24.50;83.30;;;;;;4980596;28;20117;-79
2023/07/13 10:36:47;;;;;;;9.27;3.95;;;24.70;82.00;;;;;;4981832;28;20030;-80
2023/07/13 10:39:24;;;;;;;12.10;3.95;;;24.90;80.90;;;;;;4981057;28;20499;-79
2023/07/13 10:41:59;;;;;;;9.50;3.60;;;24.90;82.10;;;;;;4980010;28;20046;-80
2023/07/13 10:44:30;;;;;;;10.23;3.85;;;24.90;82.40;;;;;;4978828;28;20034;-81
2023/07/13 10:47:00;;;;;;;11.23;3.88;;;24.80;80.60;;;;;;4985668;28;20495;-79
2023/07/13 10:49:28;;;;;;;10.02;3.63;;;25.00;80.50;;;;;;4977523;28;20034;-81
2023/07/13 10:51:54;;;;;;;9.43;3.58;;;24.60;80.60;;;;;;4972193;28;20026;-79
2023/07/13 10:54:30;;;;;;;7.05;3.53;;;24.00;81.50;;;;;;4998651;28;20031;-80
2023/07/13 10:57:20;;;;;;;11.98;3.88;;;23.90;81.70;;;;;;4997809;28;20078;-80
2023/07/13 11:00:15;;;;;;;9.77;3.00;;;24.20;81.10;;;;;;4987279;28;20030;-80
2023/07/13 11:02:44;;;;;;;8.88;3.72;;;25.20;80.10;;;;;;4979370;28;20477;-80
2023/07/13 11:05:24;;;;;;;10.48;3.30;;;26.00;77.30;;;;;;4982049;28;20052;-80
2023/07/13 11:08:13;;;;;;;8.40;3.50;;;25.30;77.10;;;;;;4979602;28;20125;-78
2023/07/13 11:10:50;;;;;;;8.43;3.45;;;25.80;77.60;;;;;;4963901;28;20951;-79
2023/07/13 11:13:36;;;;;;;6.15;3.15;;;25.80;75.60;;;;;;4962026;28;20518;-80
2023/07/13 11:16:14;;;;;;;8.35;3.60;;;25.40;76.40;;;;;;4982321;28;20418;-78
2023/07/13 11:18:39;;;;;;;5.78;2.92;;;25.20;78.80;;;;;;4972965;28;20309;-79
2023/07/13 11:21:20;;;;;;;5.10;3.35;;;25.10;77.30;;;;;;4985037;28;20100;-79
2023/07/13 11:24:20;;;;;;;14.45;3.50;;;25.50;77.70;;;;;;4964463;28;20038;-78
2023/07/13 11:26:45;;;;;;;10.65;3.30;;;25.50;75.20;;;;;;4983128;28;20011;-78
2023/07/13 11:29:17;;;;;;;6.45;2.83;;;25.50;75.80;;;;;;4971175;28;20365;-80
2023/07/13 11:31:51;;;;;;;14.85;3.33;;;25.90;74.50;;;;;;4981845;28;20026;-79
2023/07/13 11:34:21;;;;;;;11.95;2.50;;;26.00;73.90;;;;;;4969321;28;20084;-79
2023/07/13 11:36:47;;;;;;;4.72;2.60;;;26.40;72.70;;;;;;4985854;28;20274;-78
2023/07/13 11:39:26;;;;;;;6.00;2.80;;;26.40;71.80;;;;;;4965921;28;20121;-78
2023/07/13 11:41:57;;;;;;;6.90;3.17;;;26.30;73.50;;;;;;4967849;28;20062;-78
2023/07/13 11:44:25;;;;;;;5.35;2.47;;;26.50;70.90;;;;;;4985242;28;20034;-79
2023/07/13 11:47:08;;;;;;;4.70;2.58;;;25.80;71.70;;;;;;4967110;28;20252;-79
2023/07/13 11:49:44;;;;;;;9.30;2.90;;;24.90;73.90;;;;;;4981249;28;20027;-79
2023/07/13 11:52:22;;;;;;;4.95;2.63;;;24.50;75.10;;;;;;4981092;28;20022;-79
2023/07/13 11:54:56;;;;;;;4.82;2.50;;;24.20;76.60;;;;;;4982987;28;20420;-80
2023/07/13 11:57:31;;;;;;;6.55;2.65;;;23.90;78.40;;;;;;4970981;28;20097;-80
2023/07/13 12:00:00;;;;;;;7.35;3.50;;;23.60;79.60;;;;;;4981977;28;20124;-79
2023/07/13 12:02:38;;;;;;;9.10;4.20;;;23.30;83.50;;;;;;4961628;28;20202;-80
2023/07/13 12:05:09;;;;;;;13.65;4.32;;;23.10;86.70;;;;;;4983171;28;20169;-79
2023/07/13 12:07:38;;;;;;;10.65;5.45;;;22.70;90.50;;;;;;4985557;28;20022;-80
2023/07/13 12:10:17;;;;;;;12.25;6.13;;;22.20;92.00;;;;;;4967707;28;20080;-79
2023/07/13 12:13:09;;;;;;;15.20;6.20;;;21.70;94.70;;;;;;4983056;28;20037;-78
2023/07/13 12:15:44;;;;;;;14.93;6.50;;;21.50;95.30;;;;;;4978258;28;20046;-79
2023/07/13 12:18:36;;;;;;;12.20;6.75;;;21.20;95.60;;;;;;4967528;28;20022;-78
2023/07/13 12:21:03;;;;;;;13.63;7.60;;;20.90;95.90;;;;;;4965048;28;20053;-77
2023/07/13 12:23:32;;;;;;;15.38;8.13;;;20.60;97.40;;;;;;4981738;28;20026;-78
2023/07/13 12:26:03;;;;;;;6.03;4.93;;;20.30;98.70;;;;;;4983712;28;20049;-78
2023/07/13 12:28:37;;;;;;;7.40;4.63;;;19.60;98.00;;;;;;4967949;28;20414;-78
2023/07/13 12:31:06;;;;;;;10.70;5.00;;;19.00;99.40;;;;;;4980687;28;20121;-78
2023/07/13 12:33:33;;;;;;;8.88;4.78;;;18.60;99.90;;;;;;4980439;28;20105;-78
2023/07/13 12:36:05;;;;;;;6.78;4.13;;;18.20;99.90;;;;;;4968260;28;20109;-78
2023/07/13 12:38:33;;;;;;;4.18;3.13;;;17.60;99.90;;;;;;4977058;28;20045;-80
2023/07/13 12:41:07;;;;;;;4.38;2.90;;;17.30;99.90;;;;;;4980446;28;20602;-78
2023/07/13 12:43:37;;;;;;;5.45;2.53;;;16.90;99.90;;;;;;4980755;28;20040;-78
2023/07/13 12:46:24;;;;;;;5.40;2.47;;;16.70;99.90;;;;;;4980044;28;20147;-78
2023/07/13 12:48:57;;;;;;;4.25;3.00;;;16.80;99.90;;;;;;4983544;28;20033;-77
2023/07/13 12:51:24;;;;;;;;;;;17.10;99.90;;;;;;4984711;28;20086;-77
2023/07/13 12:53:57;;;;;;;3.33;2.90;;;17.50;99.90;;;;;;4982534;28;19913;-78
2023/07/13 12:56:27;;;;;;;;;;;18.00;99.90;;;;;;4982947;28;20141;-77
2023/07/13 12:58:59;;;;;;;5.68;3.58;;;18.30;99.90;;;;;;4985576;28;19917;-78